Aloha, Oregon
Current Conditions -  °F | °C
As of 10:53 PM on Saturday 25 Oct 2014 (Local Time) from KHIO Reporting Station
Broken Clouds Broken Clouds  
Wind Chill: 51°   Ceiling: 10000
Heat Index: 51°   Visibility: 10mi
Dew Point: 48°   Wind: 9mph
Humidity: 89%   Direction: 180°S
Pressure: 29.87"   Gusts: NA
Location:  45.49°N, 122.86°W
Report Text: KHIO 260553Z 18008KT 10SM SCT070 BKN100 11/09 A2987 RMK AO2 RAB0456E14 SLP115 P0000 60005 T01060089 10144 20094 53038
Loading
Personal Weather Stations






























Interactive Weather Map
Tropical Storm Tracking
New forecast layout! Learn more

10-Day Weather Forecast

Advertisements
Track Severe Weather on mobile